sensor_id;sensor_type;location;lat;lon;timestamp;P1;durP1;ratioP1;P2;durP2;ratioP2
55989;SDS011;41875;55.806;38.082;2022-07-12T00:00:29;6.25;;;3.45;;
55989;SDS011;41875;55.806;38.082;2022-07-12T00:02:57;7.43;;;3.50;;
55989;SDS011;41875;55.806;38.082;2022-07-12T00:05:27;8.63;;;3.85;;
55989;SDS011;41875;55.806;38.082;2022-07-12T00:07:56;6.57;;;3.55;;
55989;SDS011;41875;55.806;38.082;2022-07-12T00:10:24;7.32;;;3.45;;
55989;SDS011;41875;55.806;38.082;2022-07-12T00:12:53;5.80;;;3.15;;
55989;SDS011;41875;55.806;38.082;2022-07-12T00:15:22;7.65;;;3.67;;
55989;SDS011;41875;55.806;38.082;2022-07-12T00:17:50;7.47;;;3.75;;
55989;SDS011;41875;55.806;38.082;2022-07-12T00:20:19;8.95;;;3.65;;
55989;SDS011;41875;55.806;38.082;2022-07-12T00:25:17;6.75;;;3.60;;
55989;SDS011;41875;55.806;38.082;2022-07-12T00:27:46;7.95;;;3.95;;
55989;SDS011;41875;55.806;38.082;2022-07-12T00:30:14;6.40;;;3.67;;
55989;SDS011;41875;55.806;38.082;2022-07-12T00:32:43;6.07;;;3.72;;
55989;SDS011;41875;55.806;38.082;2022-07-12T00:37:40;6.20;;;3.75;;
55989;SDS011;41875;55.806;38.082;2022-07-12T00:40:10;8.45;;;4.10;;
55989;SDS011;41875;55.806;38.082;2022-07-12T00:42:39;7.00;;;3.97;;
55989;SDS011;41875;55.806;38.082;2022-07-12T00:45:08;7.07;;;3.90;;
55989;SDS011;41875;55.806;38.082;2022-07-12T00:47:38;6.78;;;4.05;;
55989;SDS011;41875;55.806;38.082;2022-07-12T00:50:11;7.32;;;3.92;;
55989;SDS011;41875;55.806;38.082;2022-07-12T00:52:41;7.35;;;4.20;;
55989;SDS011;41875;55.806;38.082;2022-07-12T00:55:12;8.07;;;4.32;;
55989;SDS011;41875;55.806;38.082;2022-07-12T00:57:41;8.10;;;4.60;;
55989;SDS011;41875;55.806;38.082;2022-07-12T01:00:11;9.43;;;4.70;;
55989;SDS011;41875;55.806;38.082;2022-07-12T01:02:41;13.32;;;6.03;;
55989;SDS011;41875;55.806;38.082;2022-07-12T01:05:11;14.25;;;5.95;;
55989;SDS011;41875;55.806;38.082;2022-07-12T01:07:40;13.98;;;7.60;;
55989;SDS011;41875;55.806;38.082;2022-07-12T01:10:09;20.80;;;10.43;;
55989;SDS011;41875;55.806;38.082;2022-07-12T01:15:11;19.17;;;9.02;;
55989;SDS011;41875;55.806;38.082;2022-07-12T01:17:40;17.05;;;7.93;;
55989;SDS011;41875;55.806;38.082;2022-07-12T01:20:18;15.60;;;7.15;;
55989;SDS011;41875;55.806;38.082;2022-07-12T01:22:51;13.05;;;6.65;;
55989;SDS011;41875;55.806;38.082;2022-07-12T01:25:22;10.57;;;6.25;;
55989;SDS011;41875;55.806;38.082;2022-07-12T01:30:19;13.45;;;5.70;;
55989;SDS011;41875;55.806;38.082;2022-07-12T01:32:47;13.00;;;6.22;;
55989;SDS011;41875;55.806;38.082;2022-07-12T01:35:18;13.60;;;6.65;;
55989;SDS011;41875;55.806;38.082;2022-07-12T01:37:46;11.52;;;6.38;;
55989;SDS011;41875;55.806;38.082;2022-07-12T01:42:45;12.88;;;6.03;;
55989;SDS011;41875;55.806;38.082;2022-07-12T01:45:14;12.65;;;6.07;;
55989;SDS011;41875;55.806;38.082;2022-07-12T01:47:43;15.20;;;6.80;;
55989;SDS011;41875;55.806;38.082;2022-07-12T01:50:12;10.63;;;6.00;;
55989;SDS011;41875;55.806;38.082;2022-07-12T01:52:40;12.63;;;6.38;;
55989;SDS011;41875;55.806;38.082;2022-07-12T01:55:09;11.50;;;6.38;;
55989;SDS011;41875;55.806;38.082;2022-07-12T01:57:41;15.00;;;6.82;;
55989;SDS011;41875;55.806;38.082;2022-07-12T02:00:10;10.27;;;6.18;;
55989;SDS011;41875;55.806;38.082;2022-07-12T02:02:39;10.38;;;6.03;;
55989;SDS011;41875;55.806;38.082;2022-07-12T02:07:36;13.10;;;6.72;;
55989;SDS011;41875;55.806;38.082;2022-07-12T02:10:07;13.85;;;7.07;;
55989;SDS011;41875;55.806;38.082;2022-07-12T02:12:37;13.30;;;7.13;;
55989;SDS011;41875;55.806;38.082;2022-07-12T02:15:07;12.30;;;6.68;;
55989;SDS011;41875;55.806;38.082;2022-07-12T02:17:37;13.98;;;6.85;;
55989;SDS011;41875;55.806;38.082;2022-07-12T02:20:06;12.65;;;6.55;;
55989;SDS011;41875;55.806;38.082;2022-07-12T02:22:37;14.68;;;7.57;;
55989;SDS011;41875;55.806;38.082;2022-07-12T02:25:06;12.70;;;6.65;;
55989;SDS011;41875;55.806;38.082;2022-07-12T02:27:35;13.27;;;7.50;;
55989;SDS011;41875;55.806;38.082;2022-07-12T02:30:09;12.52;;;7.05;;
55989;SDS011;41875;55.806;38.082;2022-07-12T02:32:38;13.50;;;6.65;;
55989;SDS011;41875;55.806;38.082;2022-07-12T02:35:07;11.95;;;7.47;;
55989;SDS011;41875;55.806;38.082;2022-07-12T02:40:04;10.10;;;5.85;;
55989;SDS011;41875;55.806;38.082;2022-07-12T02:42:51;10.20;;;5.78;;
55989;SDS011;41875;55.806;38.082;2022-07-12T02:45:22;11.63;;;6.50;;
55989;SDS011;41875;55.806;38.082;2022-07-12T02:47:51;10.60;;;6.10;;
55989;SDS011;41875;55.806;38.082;2022-07-12T02:50:19;10.95;;;5.88;;
55989;SDS011;41875;55.806;38.082;2022-07-12T02:52:47;9.40;;;6.03;;
55989;SDS011;41875;55.806;38.082;2022-07-12T02:55:17;11.07;;;6.22;;
55989;SDS011;41875;55.806;38.082;2022-07-12T02:57:45;9.35;;;6.20;;
55989;SDS011;41875;55.806;38.082;2022-07-12T03:00:15;12.82;;;6.28;;
55989;SDS011;41875;55.806;38.082;2022-07-12T03:02:45;8.90;;;6.03;;
55989;SDS011;41875;55.806;38.082;2022-07-12T03:05:15;11.55;;;7.07;;
55989;SDS011;41875;55.806;38.082;2022-07-12T03:10:12;10.80;;;5.97;;
55989;SDS011;41875;55.806;38.082;2022-07-12T03:12:40;9.55;;;5.43;;
55989;SDS011;41875;55.806;38.082;2022-07-12T03:15:09;10.55;;;5.32;;
55989;SDS011;41875;55.806;38.082;2022-07-12T03:17:38;11.52;;;5.60;;
55989;SDS011;41875;55.806;38.082;2022-07-12T03:20:09;10.02;;;5.28;;
55989;SDS011;41875;55.806;38.082;2022-07-12T03:22:41;9.70;;;5.78;;
55989;SDS011;41875;55.806;38.082;2022-07-12T03:25:10;10.77;;;4.72;;
55989;SDS011;41875;55.806;38.082;2022-07-12T03:27:39;8.10;;;5.05;;
55989;SDS011;41875;55.806;38.082;2022-07-12T03:30:10;10.63;;;5.30;;
55989;SDS011;41875;55.806;38.082;2022-07-12T03:32:39;10.38;;;5.93;;
55989;SDS011;41875;55.806;38.082;2022-07-12T03:35:10;9.98;;;5.50;;
55989;SDS011;41875;55.806;38.082;2022-07-12T03:37:42;12.95;;;5.53;;
55989;SDS011;41875;55.806;38.082;2022-07-12T03:40:12;10.60;;;5.15;;
55989;SDS011;41875;55.806;38.082;2022-07-12T03:42:41;9.30;;;5.70;;
55989;SDS011;41875;55.806;38.082;2022-07-12T03:45:11;13.05;;;6.10;;
55989;SDS011;41875;55.806;38.082;2022-07-12T03:47:40;9.82;;;5.38;;
55989;SDS011;41875;55.806;38.082;2022-07-12T03:50:11;13.82;;;6.22;;
55989;SDS011;41875;55.806;38.082;2022-07-12T03:52:41;11.20;;;5.78;;
55989;SDS011;41875;55.806;38.082;2022-07-12T03:55:11;10.82;;;5.10;;
55989;SDS011;41875;55.806;38.082;2022-07-12T03:57:40;11.68;;;5.28;;
55989;SDS011;41875;55.806;38.082;2022-07-12T04:00:10;13.85;;;5.82;;
55989;SDS011;41875;55.806;38.082;2022-07-12T04:02:43;9.40;;;5.15;;
55989;SDS011;41875;55.806;38.082;2022-07-12T04:05:13;11.75;;;5.65;;
55989;SDS011;41875;55.806;38.082;2022-07-12T04:07:41;11.10;;;5.75;;
55989;SDS011;41875;55.806;38.082;2022-07-12T04:10:10;13.50;;;5.82;;
55989;SDS011;41875;55.806;38.082;2022-07-12T04:12:38;8.52;;;5.15;;
55989;SDS011;41875;55.806;38.082;2022-07-12T04:15:07;8.77;;;4.82;;
55989;SDS011;41875;55.806;38.082;2022-07-12T04:17:36;10.70;;;5.53;;
55989;SDS011;41875;55.806;38.082;2022-07-12T04:20:05;10.23;;;5.15;;
55989;SDS011;41875;55.806;38.082;2022-07-12T04:22:39;10.98;;;6.10;;
55989;SDS011;41875;55.806;38.082;2022-07-12T04:25:08;8.73;;;5.43;;
55989;SDS011;41875;55.806;38.082;2022-07-12T04:27:37;10.80;;;6.13;;
55989;SDS011;41875;55.806;38.082;2022-07-12T04:30:06;12.07;;;5.75;;
55989;SDS011;41875;55.806;38.082;2022-07-12T04:32:35;9.98;;;5.38;;
55989;SDS011;41875;55.806;38.082;2022-07-12T04:35:04;8.75;;;4.65;;
55989;SDS011;41875;55.806;38.082;2022-07-12T04:37:34;9.02;;;4.90;;
55989;SDS011;41875;55.806;38.082;2022-07-12T04:42:33;8.30;;;5.30;;
55989;SDS011;41875;55.806;38.082;2022-07-12T04:45:02;9.25;;;4.82;;
55989;SDS011;41875;55.806;38.082;2022-07-12T04:47:31;9.75;;;5.10;;
55989;SDS011;41875;55.806;38.082;2022-07-12T04:50:04;10.88;;;4.93;;
55989;SDS011;41875;55.806;38.082;2022-07-12T04:52:33;9.48;;;5.05;;
55989;SDS011;41875;55.806;38.082;2022-07-12T04:55:02;9.50;;;5.30;;
55989;SDS011;41875;55.806;38.082;2022-07-12T04:57:33;11.70;;;5.68;;
55989;SDS011;41875;55.806;38.082;2022-07-12T05:00:03;11.18;;;5.30;;
55989;SDS011;41875;55.806;38.082;2022-07-12T05:02:33;10.38;;;5.30;;
55989;SDS011;41875;55.806;38.082;2022-07-12T05:05:02;8.88;;;5.03;;
55989;SDS011;41875;55.806;38.082;2022-07-12T05:07:31;9.13;;;5.10;;
55989;SDS011;41875;55.806;38.082;2022-07-12T05:10:00;14.07;;;5.45;;
55989;SDS011;41875;55.806;38.082;2022-07-12T05:12:30;9.10;;;5.07;;
55989;SDS011;41875;55.806;38.082;2022-07-12T05:14:58;10.50;;;5.80;;
55989;SDS011;41875;55.806;38.082;2022-07-12T05:17:29;9.32;;;5.45;;
55989;SDS011;41875;55.806;38.082;2022-07-12T05:19:58;8.02;;;5.25;;
55989;SDS011;41875;55.806;38.082;2022-07-12T05:22:28;9.20;;;5.57;;
55989;SDS011;41875;55.806;38.082;2022-07-12T05:24:57;11.00;;;5.38;;
55989;SDS011;41875;55.806;38.082;2022-07-12T05:27:25;10.63;;;5.75;;
55989;SDS011;41875;55.806;38.082;2022-07-12T05:29:55;9.80;;;5.30;;
55989;SDS011;41875;55.806;38.082;2022-07-12T05:32:24;12.05;;;5.13;;
55989;SDS011;41875;55.806;38.082;2022-07-12T05:34:53;9.75;;;5.13;;
55989;SDS011;41875;55.806;38.082;2022-07-12T05:37:21;11.18;;;5.15;;
55989;SDS011;41875;55.806;38.082;2022-07-12T05:39:51;10.52;;;5.88;;
55989;SDS011;41875;55.806;38.082;2022-07-12T05:42:20;10.13;;;5.32;;
55989;SDS011;41875;55.806;38.082;2022-07-12T05:44:49;11.38;;;5.50;;
55989;SDS011;41875;55.806;38.082;2022-07-12T05:47:18;10.13;;;5.25;;
55989;SDS011;41875;55.806;38.082;2022-07-12T05:49:47;11.57;;;6.07;;
55989;SDS011;41875;55.806;38.082;2022-07-12T05:52:15;12.77;;;6.18;;
55989;SDS011;41875;55.806;38.082;2022-07-12T05:55:01;11.98;;;6.20;;
55989;SDS011;41875;55.806;38.082;2022-07-12T05:59:58;10.40;;;5.55;;
55989;SDS011;41875;55.806;38.082;2022-07-12T06:02:31;12.30;;;5.85;;
55989;SDS011;41875;55.806;38.082;2022-07-12T06:05:00;9.88;;;5.68;;
55989;SDS011;41875;55.806;38.082;2022-07-12T06:09:57;8.85;;;5.25;;
55989;SDS011;41875;55.806;38.082;2022-07-12T06:12:25;10.27;;;5.40;;
55989;SDS011;41875;55.806;38.082;2022-07-12T06:14:54;10.20;;;5.45;;
55989;SDS011;41875;55.806;38.082;2022-07-12T06:17:22;10.05;;;5.68;;
55989;SDS011;41875;55.806;38.082;2022-07-12T06:19:52;11.15;;;5.68;;
55989;SDS011;41875;55.806;38.082;2022-07-12T06:22:21;10.52;;;6.05;;
55989;SDS011;41875;55.806;38.082;2022-07-12T06:24:49;10.10;;;6.40;;
55989;SDS011;41875;55.806;38.082;2022-07-12T06:27:18;11.20;;;6.50;;
55989;SDS011;41875;55.806;38.082;2022-07-12T06:29:46;10.85;;;6.10;;
55989;SDS011;41875;55.806;38.082;2022-07-12T06:32:15;14.07;;;7.03;;
55989;SDS011;41875;55.806;38.082;2022-07-12T06:34:44;14.93;;;7.55;;
55989;SDS011;41875;55.806;38.082;2022-07-12T06:37:14;14.90;;;7.65;;
55989;SDS011;41875;55.806;38.082;2022-07-12T06:39:43;15.20;;;7.68;;
55989;SDS011;41875;55.806;38.082;2022-07-12T06:42:13;17.38;;;8.18;;
55989;SDS011;41875;55.806;38.082;2022-07-12T06:44:52;14.13;;;7.30;;
55989;SDS011;41875;55.806;38.082;2022-07-12T06:47:20;13.98;;;6.75;;
55989;SDS011;41875;55.806;38.082;2022-07-12T06:52:19;11.00;;;5.30;;
55989;SDS011;41875;55.806;38.082;2022-07-12T06:54:55;15.23;;;6.57;;
55989;SDS011;41875;55.806;38.082;2022-07-12T06:59:53;11.40;;;4.80;;
55989;SDS011;41875;55.806;38.082;2022-07-12T07:02:22;8.60;;;5.13;;
55989;SDS011;41875;55.806;38.082;2022-07-12T07:07:20;11.00;;;4.53;;
55989;SDS011;41875;55.806;38.082;2022-07-12T07:09:49;11.98;;;4.60;;
55989;SDS011;41875;55.806;38.082;2022-07-12T07:12:17;11.38;;;4.30;;
55989;SDS011;41875;55.806;38.082;2022-07-12T07:14:46;11.23;;;4.88;;
55989;SDS011;41875;55.806;38.082;2022-07-12T07:17:15;8.52;;;4.30;;
55989;SDS011;41875;55.806;38.082;2022-07-12T07:19:44;7.80;;;4.50;;
55989;SDS011;41875;55.806;38.082;2022-07-12T07:22:13;8.93;;;4.20;;
55989;SDS011;41875;55.806;38.082;2022-07-12T07:27:11;9.18;;;4.20;;
55989;SDS011;41875;55.806;38.082;2022-07-12T07:29:40;7.70;;;4.43;;
55989;SDS011;41875;55.806;38.082;2022-07-12T07:32:26;10.15;;;4.95;;
55989;SDS011;41875;55.806;38.082;2022-07-12T07:34:54;7.82;;;4.25;;
55989;SDS011;41875;55.806;38.082;2022-07-12T07:37:23;9.25;;;4.60;;
55989;SDS011;41875;55.806;38.082;2022-07-12T07:39:53;10.48;;;4.63;;
55989;SDS011;41875;55.806;38.082;2022-07-12T07:42:22;11.10;;;4.32;;
55989;SDS011;41875;55.806;38.082;2022-07-12T07:44:50;9.80;;;4.60;;
55989;SDS011;41875;55.806;38.082;2022-07-12T07:47:42;13.38;;;4.53;;
55989;SDS011;41875;55.806;38.082;2022-07-12T07:50:31;9.38;;;4.78;;
55989;SDS011;41875;55.806;38.082;2022-07-12T07:53:00;8.75;;;4.78;;
55989;SDS011;41875;55.806;38.082;2022-07-12T07:55:32;8.85;;;4.47;;
55989;SDS011;41875;55.806;38.082;2022-07-12T07:58:01;9.23;;;4.63;;
55989;SDS011;41875;55.806;38.082;2022-07-12T08:00:30;9.57;;;4.15;;
55989;SDS011;41875;55.806;38.082;2022-07-12T08:02:58;10.95;;;4.47;;
55989;SDS011;41875;55.806;38.082;2022-07-12T08:05:27;12.40;;;4.50;;
55989;SDS011;41875;55.806;38.082;2022-07-12T08:10:24;12.90;;;4.97;;
55989;SDS011;41875;55.806;38.082;2022-07-12T08:12:55;13.60;;;5.03;;
55989;SDS011;41875;55.806;38.082;2022-07-12T08:15:24;9.50;;;4.65;;
55989;SDS011;41875;55.806;38.082;2022-07-12T08:17:52;10.05;;;4.68;;
55989;SDS011;41875;55.806;38.082;2022-07-12T08:20:21;8.75;;;4.63;;
55989;SDS011;41875;55.806;38.082;2022-07-12T08:23:10;9.73;;;4.57;;
55989;SDS011;41875;55.806;38.082;2022-07-12T08:25:39;10.73;;;4.53;;
55989;SDS011;41875;55.806;38.082;2022-07-12T08:30:38;12.02;;;4.90;;
55989;SDS011;41875;55.806;38.082;2022-07-12T08:33:13;11.30;;;5.03;;
55989;SDS011;41875;55.806;38.082;2022-07-12T08:35:42;10.13;;;4.28;;
55989;SDS011;41875;55.806;38.082;2022-07-12T08:38:11;12.80;;;5.43;;
55989;SDS011;41875;55.806;38.082;2022-07-12T08:40:41;11.15;;;4.53;;
55989;SDS011;41875;55.806;38.082;2022-07-12T08:45:39;11.20;;;5.68;;
55989;SDS011;41875;55.806;38.082;2022-07-12T08:48:08;7.05;;;4.60;;
55989;SDS011;41875;55.806;38.082;2022-07-12T08:53:11;10.55;;;4.60;;
55989;SDS011;41875;55.806;38.082;2022-07-12T08:55:40;11.68;;;4.28;;
55989;SDS011;41875;55.806;38.082;2022-07-12T09:00:46;10.35;;;4.80;;
55989;SDS011;41875;55.806;38.082;2022-07-12T09:03:16;13.48;;;4.50;;
55989;SDS011;41875;55.806;38.082;2022-07-12T09:05:50;9.32;;;4.70;;
55989;SDS011;41875;55.806;38.082;2022-07-12T09:08:24;7.10;;;4.20;;
55989;SDS011;41875;55.806;38.082;2022-07-12T09:10:56;7.00;;;3.97;;
55989;SDS011;41875;55.806;38.082;2022-07-12T09:13:47;10.40;;;4.45;;
55989;SDS011;41875;55.806;38.082;2022-07-12T09:16:18;8.80;;;4.25;;
55989;SDS011;41875;55.806;38.082;2022-07-12T09:18:48;8.70;;;3.53;;
55989;SDS011;41875;55.806;38.082;2022-07-12T09:21:22;9.88;;;3.92;;
55989;SDS011;41875;55.806;38.082;2022-07-12T09:23:52;10.27;;;4.45;;
55989;SDS011;41875;55.806;38.082;2022-07-12T09:26:22;7.47;;;3.95;;
55989;SDS011;41875;55.806;38.082;2022-07-12T09:28:52;10.27;;;4.28;;
55989;SDS011;41875;55.806;38.082;2022-07-12T09:31:21;7.35;;;3.95;;
55989;SDS011;41875;55.806;38.082;2022-07-12T09:34:02;12.63;;;4.57;;
55989;SDS011;41875;55.806;38.082;2022-07-12T09:36:54;8.18;;;3.65;;
55989;SDS011;41875;55.806;38.082;2022-07-12T09:39:23;8.05;;;4.40;;
55989;SDS011;41875;55.806;38.082;2022-07-12T09:41:54;12.88;;;4.30;;
55989;SDS011;41875;55.806;38.082;2022-07-12T09:44:25;13.00;;;4.38;;
55989;SDS011;41875;55.806;38.082;2022-07-12T09:46:57;7.85;;;3.60;;
55989;SDS011;41875;55.806;38.082;2022-07-12T09:49:27;9.52;;;4.13;;
55989;SDS011;41875;55.806;38.082;2022-07-12T09:51:56;6.57;;;3.58;;
55989;SDS011;41875;55.806;38.082;2022-07-12T09:54:25;13.70;;;4.30;;
55989;SDS011;41875;55.806;38.082;2022-07-12T09:56:58;10.38;;;4.20;;
55989;SDS011;41875;55.806;38.082;2022-07-12T09:59:31;6.60;;;3.95;;
55989;SDS011;41875;55.806;38.082;2022-07-12T10:02:04;6.88;;;3.80;;
55989;SDS011;41875;55.806;38.082;2022-07-12T10:04:34;7.75;;;3.88;;
55989;SDS011;41875;55.806;38.082;2022-07-12T10:07:03;6.30;;;3.05;;
55989;SDS011;41875;55.806;38.082;2022-07-12T10:09:32;8.40;;;3.17;;
55989;SDS011;41875;55.806;38.082;2022-07-12T10:12:03;8.18;;;3.17;;
55989;SDS011;41875;55.806;38.082;2022-07-12T10:14:39;7.10;;;3.40;;
55989;SDS011;41875;55.806;38.082;2022-07-12T10:17:09;8.77;;;3.30;;
55989;SDS011;41875;55.806;38.082;2022-07-12T10:19:39;8.80;;;3.50;;
55989;SDS011;41875;55.806;38.082;2022-07-12T10:22:18;5.43;;;3.50;;
55989;SDS011;41875;55.806;38.082;2022-07-12T10:24:48;7.50;;;3.53;;
55989;SDS011;41875;55.806;38.082;2022-07-12T10:27:27;7.68;;;3.63;;
55989;SDS011;41875;55.806;38.082;2022-07-12T10:32:58;8.75;;;4.60;;
55989;SDS011;41875;55.806;38.082;2022-07-12T10:35:28;8.27;;;3.60;;
55989;SDS011;41875;55.806;38.082;2022-07-12T10:38:14;8.63;;;3.50;;
55989;SDS011;41875;55.806;38.082;2022-07-12T10:40:47;8.10;;;3.63;;
55989;SDS011;41875;55.806;38.082;2022-07-12T10:43:20;7.80;;;3.80;;
55989;SDS011;41875;55.806;38.082;2022-07-12T10:46:17;7.72;;;3.97;;
55989;SDS011;41875;55.806;38.082;2022-07-12T10:48:47;6.60;;;3.72;;
55989;SDS011;41875;55.806;38.082;2022-07-12T10:51:16;7.40;;;3.80;;
55989;SDS011;41875;55.806;38.082;2022-07-12T10:53:47;6.03;;;3.95;;
55989;SDS011;41875;55.806;38.082;2022-07-12T10:56:21;7.78;;;3.85;;
55989;SDS011;41875;55.806;38.082;2022-07-12T10:58:57;7.65;;;4.07;;
55989;SDS011;41875;55.806;38.082;2022-07-12T11:01:29;8.57;;;3.85;;
55989;SDS011;41875;55.806;38.082;2022-07-12T11:04:03;8.38;;;4.05;;
55989;SDS011;41875;55.806;38.082;2022-07-12T11:06:34;8.70;;;4.00;;
55989;SDS011;41875;55.806;38.082;2022-07-12T11:09:04;8.23;;;3.55;;
55989;SDS011;41875;55.806;38.082;2022-07-12T11:11:39;6.90;;;3.55;;
55989;SDS011;41875;55.806;38.082;2022-07-12T11:14:10;8.13;;;3.50;;
55989;SDS011;41875;55.806;38.082;2022-07-12T11:16:45;8.38;;;3.33;;
55989;SDS011;41875;55.806;38.082;2022-07-12T11:19:15;9.02;;;3.47;;
55989;SDS011;41875;55.806;38.082;2022-07-12T11:21:44;5.05;;;2.30;;
55989;SDS011;41875;55.806;38.082;2022-07-12T11:24:16;7.93;;;1.92;;
55989;SDS011;41875;55.806;38.082;2022-07-12T11:26:45;4.32;;;1.90;;
55989;SDS011;41875;55.806;38.082;2022-07-12T11:29:15;6.43;;;1.90;;
55989;SDS011;41875;55.806;38.082;2022-07-12T11:31:46;7.80;;;1.70;;
55989;SDS011;41875;55.806;38.082;2022-07-12T11:34:19;4.78;;;1.55;;
55989;SDS011;41875;55.806;38.082;2022-07-12T11:36:47;5.90;;;1.90;;
55989;SDS011;41875;55.806;38.082;2022-07-12T11:39:29;3.70;;;1.85;;
55989;SDS011;41875;55.806;38.082;2022-07-12T11:41:58;6.30;;;1.73;;
55989;SDS011;41875;55.806;38.082;2022-07-12T11:44:40;8.82;;;2.00;;
55989;SDS011;41875;55.806;38.082;2022-07-12T11:47:11;5.47;;;2.03;;
55989;SDS011;41875;55.806;38.082;2022-07-12T11:49:43;6.00;;;1.70;;
55989;SDS011;41875;55.806;38.082;2022-07-12T11:52:13;6.63;;;1.58;;
55989;SDS011;41875;55.806;38.082;2022-07-12T11:54:44;3.75;;;1.20;;
55989;SDS011;41875;55.806;38.082;2022-07-12T11:57:13;5.75;;;1.13;;
55989;SDS011;41875;55.806;38.082;2022-07-12T11:59:41;6.93;;;1.65;;
55989;SDS011;41875;55.806;38.082;2022-07-12T12:04:45;6.57;;;1.30;;
55989;SDS011;41875;55.806;38.082;2022-07-12T12:07:16;4.00;;;1.30;;
55989;SDS011;41875;55.806;38.082;2022-07-12T12:09:57;5.65;;;1.27;;
55989;SDS011;41875;55.806;38.082;2022-07-12T12:12:34;5.03;;;1.30;;
55989;SDS011;41875;55.806;38.082;2022-07-12T12:15:05;4.00;;;1.30;;
55989;SDS011;41875;55.806;38.082;2022-07-12T12:17:36;5.28;;;1.40;;
55989;SDS011;41875;55.806;38.082;2022-07-12T12:20:10;8.40;;;1.73;;
55989;SDS011;41875;55.806;38.082;2022-07-12T12:22:40;2.03;;;0.80;;
55989;SDS011;41875;55.806;38.082;2022-07-12T12:25:11;3.63;;;1.17;;
55989;SDS011;41875;55.806;38.082;2022-07-12T12:27:46;3.75;;;1.30;;
55989;SDS011;41875;55.806;38.082;2022-07-12T12:30:47;2.08;;;1.15;;
55989;SDS011;41875;55.806;38.082;2022-07-12T12:33:34;3.90;;;1.08;;
55989;SDS011;41875;55.806;38.082;2022-07-12T12:36:10;4.18;;;1.02;;
55989;SDS011;41875;55.806;38.082;2022-07-12T12:38:43;4.22;;;1.20;;
55989;SDS011;41875;55.806;38.082;2022-07-12T12:41:13;5.03;;;1.08;;
55989;SDS011;41875;55.806;38.082;2022-07-12T12:43:42;1.30;;;0.90;;
55989;SDS011;41875;55.806;38.082;2022-07-12T12:46:10;4.00;;;0.90;;
55989;SDS011;41875;55.806;38.082;2022-07-12T12:48:46;1.40;;;0.85;;
55989;SDS011;41875;55.806;38.082;2022-07-12T12:51:15;1.58;;;1.02;;
55989;SDS011;41875;55.806;38.082;2022-07-12T12:53:54;2.13;;;0.98;;
55989;SDS011;41875;55.806;38.082;2022-07-12T12:56:23;4.47;;;0.88;;
55989;SDS011;41875;55.806;38.082;2022-07-12T13:01:21;1.65;;;0.90;;
55989;SDS011;41875;55.806;38.082;2022-07-12T13:06:20;2.58;;;0.90;;
55989;SDS011;41875;55.806;38.082;2022-07-12T13:08:49;1.92;;;0.93;;
55989;SDS011;41875;55.806;38.082;2022-07-12T13:11:18;3.63;;;1.10;;
55989;SDS011;41875;55.806;38.082;2022-07-12T13:13:49;3.17;;;1.15;;
55989;SDS011;41875;55.806;38.082;2022-07-12T13:16:20;4.38;;;1.20;;
55989;SDS011;41875;55.806;38.082;2022-07-12T13:18:49;3.35;;;1.10;;
55989;SDS011;41875;55.806;38.082;2022-07-12T13:21:19;9.98;;;1.67;;
55989;SDS011;41875;55.806;38.082;2022-07-12T13:23:48;11.70;;;1.65;;
55989;SDS011;41875;55.806;38.082;2022-07-12T13:28:45;4.35;;;1.65;;
55989;SDS011;41875;55.806;38.082;2022-07-12T13:33:42;5.28;;;1.30;;
55989;SDS011;41875;55.806;38.082;2022-07-12T13:38:40;2.90;;;1.20;;
55989;SDS011;41875;55.806;38.082;2022-07-12T13:41:09;4.95;;;1.60;;
55989;SDS011;41875;55.806;38.082;2022-07-12T13:43:39;2.83;;;1.35;;
55989;SDS011;41875;55.806;38.082;2022-07-12T13:46:31;6.88;;;1.40;;
55989;SDS011;41875;55.806;38.082;2022-07-12T13:49:00;4.28;;;1.30;;
55989;SDS011;41875;55.806;38.082;2022-07-12T13:53:59;4.18;;;1.45;;
55989;SDS011;41875;55.806;38.082;2022-07-12T13:56:28;7.60;;;1.45;;
55989;SDS011;41875;55.806;38.082;2022-07-12T13:59:01;4.63;;;1.30;;
55989;SDS011;41875;55.806;38.082;2022-07-12T14:01:31;4.13;;;1.25;;
55989;SDS011;41875;55.806;38.082;2022-07-12T14:04:00;5.18;;;1.50;;
55989;SDS011;41875;55.806;38.082;2022-07-12T14:06:29;3.97;;;1.52;;
55989;SDS011;41875;55.806;38.082;2022-07-12T14:09:00;3.90;;;1.40;;
55989;SDS011;41875;55.806;38.082;2022-07-12T14:11:28;2.15;;;1.17;;
55989;SDS011;41875;55.806;38.082;2022-07-12T14:13:57;4.68;;;1.20;;
55989;SDS011;41875;55.806;38.082;2022-07-12T14:16:26;3.00;;;1.30;;
55989;SDS011;41875;55.806;38.082;2022-07-12T14:18:54;4.22;;;1.30;;
55989;SDS011;41875;55.806;38.082;2022-07-12T14:21:23;2.97;;;1.08;;
55989;SDS011;41875;55.806;38.082;2022-07-12T14:23:54;5.20;;;1.42;;
55989;SDS011;41875;55.806;38.082;2022-07-12T14:26:27;2.13;;;1.05;;
55989;SDS011;41875;55.806;38.082;2022-07-12T14:28:56;4.05;;;1.20;;
55989;SDS011;41875;55.806;38.082;2022-07-12T14:31:24;9.07;;;1.60;;
55989;SDS011;41875;55.806;38.082;2022-07-12T14:33:53;3.80;;;1.10;;
55989;SDS011;41875;55.806;38.082;2022-07-12T14:36:21;5.35;;;1.27;;
55989;SDS011;41875;55.806;38.082;2022-07-12T14:38:50;2.38;;;1.10;;
55989;SDS011;41875;55.806;38.082;2022-07-12T14:41:19;4.45;;;1.40;;
55989;SDS011;41875;55.806;38.082;2022-07-12T14:46:17;2.78;;;1.30;;
55989;SDS011;41875;55.806;38.082;2022-07-12T14:51:14;3.72;;;1.65;;
55989;SDS011;41875;55.806;38.082;2022-07-12T14:53:43;2.78;;;1.30;;
55989;SDS011;41875;55.806;38.082;2022-07-12T14:56:12;5.25;;;1.65;;
55989;SDS011;41875;55.806;38.082;2022-07-12T14:58:41;5.47;;;1.70;;
55989;SDS011;41875;55.806;38.082;2022-07-12T15:01:11;3.88;;;1.20;;
55989;SDS011;41875;55.806;38.082;2022-07-12T15:03:40;6.10;;;1.17;;
55989;SDS011;41875;55.806;38.082;2022-07-12T15:08:37;3.30;;;1.23;;
55989;SDS011;41875;55.806;38.082;2022-07-12T15:13:34;4.60;;;1.40;;
55989;SDS011;41875;55.806;38.082;2022-07-12T15:18:32;2.45;;;1.02;;
55989;SDS011;41875;55.806;38.082;2022-07-12T15:21:03;8.65;;;1.23;;
55989;SDS011;41875;55.806;38.082;2022-07-12T15:23:32;1.80;;;1.00;;
55989;SDS011;41875;55.806;38.082;2022-07-12T15:26:01;1.80;;;0.93;;
55989;SDS011;41875;55.806;38.082;2022-07-12T15:28:30;1.98;;;1.10;;
55989;SDS011;41875;55.806;38.082;2022-07-12T15:31:00;4.80;;;1.10;;
55989;SDS011;41875;55.806;38.082;2022-07-12T15:35:58;3.33;;;1.38;;
55989;SDS011;41875;55.806;38.082;2022-07-12T15:38:27;4.05;;;1.10;;
55989;SDS011;41875;55.806;38.082;2022-07-12T15:40:55;3.55;;;1.25;;
55989;SDS011;41875;55.806;38.082;2022-07-12T15:43:24;5.35;;;1.58;;
55989;SDS011;41875;55.806;38.082;2022-07-12T15:45:53;4.65;;;1.50;;
55989;SDS011;41875;55.806;38.082;2022-07-12T15:50:50;5.80;;;1.52;;
55989;SDS011;41875;55.806;38.082;2022-07-12T15:53:21;5.70;;;1.73;;
55989;SDS011;41875;55.806;38.082;2022-07-12T15:55:59;4.20;;;1.73;;
55989;SDS011;41875;55.806;38.082;2022-07-12T15:58:30;3.33;;;1.95;;
55989;SDS011;41875;55.806;38.082;2022-07-12T16:01:00;3.72;;;1.58;;
55989;SDS011;41875;55.806;38.082;2022-07-12T16:03:31;4.30;;;1.80;;
55989;SDS011;41875;55.806;38.082;2022-07-12T16:06:04;4.72;;;1.77;;
55989;SDS011;41875;55.806;38.082;2022-07-12T16:08:35;3.55;;;1.55;;
55989;SDS011;41875;55.806;38.082;2022-07-12T16:11:03;4.43;;;1.80;;
55989;SDS011;41875;55.806;38.082;2022-07-12T16:13:32;3.40;;;1.63;;
55989;SDS011;41875;55.806;38.082;2022-07-12T16:16:01;4.50;;;1.67;;